createdAt,value
2022-08-12T00:02:03.023Z,94938.00
2022-08-12T00:04:52.691Z,94935.22
2022-08-12T00:07:39.120Z,94952.25
2022-08-12T00:10:25.304Z,94951.75
2022-08-12T00:13:12.985Z,94947.56
2022-08-12T00:16:02.817Z,94950.22
2022-08-12T00:18:48.668Z,94945.63
2022-08-12T00:21:36.717Z,94936.97
2022-08-12T00:24:27.066Z,94945.53
2022-08-12T00:27:13.069Z,94946.97
2022-08-12T00:29:58.694Z,94942.72
2022-08-12T00:32:47.658Z,94946.13
2022-08-12T00:35:41.953Z,94945.06
2022-08-12T00:38:27.190Z,94945.06
2022-08-12T00:41:12.719Z,94935.50
2022-08-12T00:43:43.053Z,94934.31
2022-08-12T00:46:28.364Z,94948.31
2022-08-12T00:48:56.847Z,94938.06
2022-08-12T00:51:46.782Z,94928.47
2022-08-12T00:54:13.869Z,94932.06
2022-08-12T00:56:41.906Z,94939.53
2022-08-12T00:59:09.469Z,94948.94
2022-08-12T01:02:00.945Z,94944.31
2022-08-12T01:04:44.265Z,94932.09
2022-08-12T01:07:35.123Z,94930.53
2022-08-12T01:10:32.746Z,94925.56
2022-08-12T01:13:18.593Z,94937.81
2022-08-12T01:15:50.071Z,94940.47
2022-08-12T01:18:19.097Z,94916.00
2022-08-12T01:20:53.586Z,94932.13
2022-08-12T01:23:35.421Z,94928.09
2022-08-12T01:26:06.928Z,94921.69
2022-08-12T01:28:35.517Z,94917.78
2022-08-12T01:31:04.925Z,94925.78
2022-08-12T01:33:50.714Z,94928.06
2022-08-12T01:36:19.294Z,94916.00
2022-08-12T01:38:48.141Z,94918.16
2022-08-12T01:41:18.476Z,94921.31
2022-08-12T01:43:45.866Z,94918.81
2022-08-12T01:46:15.238Z,94930.91
2022-08-12T01:48:53.772Z,94920.78
2022-08-12T01:52:15.861Z,94926.63
2022-08-12T01:54:22.704Z,94922.38
2022-08-12T01:57:59.776Z,94915.47
2022-08-12T02:00:16.219Z,94917.22
2022-08-12T02:03:11.383Z,94891.84
2022-08-12T02:06:32.033Z,94901.25
2022-08-12T02:09:18.683Z,94902.13
2022-08-12T02:11:50.930Z,94908.31
2022-08-12T02:14:48.195Z,94888.28
2022-08-12T02:17:55.194Z,94892.19
2022-08-12T02:20:35.420Z,94903.69
2022-08-12T02:23:23.180Z,94896.03
2022-08-12T02:25:52.175Z,94902.94
2022-08-12T02:28:18.880Z,94899.22
2022-08-12T02:30:45.384Z,94891.59
2022-08-12T02:33:12.420Z,94893.16
2022-08-12T02:35:39.844Z,94881.66
2022-08-12T02:38:10.176Z,94882.84
2022-08-12T02:40:39.814Z,94890.50
2022-08-12T02:43:23.913Z,94883.75
2022-08-12T02:46:14.731Z,94887.41
2022-08-12T02:49:09.306Z,94880.19
2022-08-12T02:51:44.286Z,94871.47
2022-08-12T02:54:11.913Z,94878.00
2022-08-12T02:56:41.179Z,94873.03
2022-08-12T02:59:11.199Z,94874.63
2022-08-12T03:01:48.195Z,94875.09
2022-08-12T03:04:24.590Z,94878.78
2022-08-12T03:07:21.529Z,94885.72
2022-08-12T03:10:07.186Z,94878.78
2022-08-12T03:12:49.890Z,94885.66
2022-08-12T03:15:22.352Z,94887.22
2022-08-12T03:18:24.844Z,94892.72
2022-08-12T03:20:55.315Z,94890.19
2022-08-12T03:23:30.143Z,94878.09
2022-08-12T03:25:59.254Z,94888.19
2022-08-12T03:28:44.742Z,94889.41
2022-08-12T03:31:11.434Z,94886.53
2022-08-12T03:33:40.531Z,94894.16
2022-08-12T03:36:08.919Z,94881.91
2022-08-12T03:38:38.597Z,94868.72
2022-08-12T03:41:28.940Z,94887.19
2022-08-12T03:44:34.448Z,94873.28
2022-08-12T03:47:26.422Z,94888.84
2022-08-12T03:50:13.355Z,94884.94
2022-08-12T03:52:58.571Z,94881.31
2022-08-12T03:55:43.371Z,94878.84
2022-08-12T03:58:30.688Z,94879.28
2022-08-12T04:00:58.656Z,94881.75
2022-08-12T04:03:44.331Z,94888.69
2022-08-12T04:06:11.029Z,94877.22
2022-08-12T04:08:38.889Z,94879.75
2022-08-12T04:11:27.037Z,94876.84
2022-08-12T04:14:06.143Z,94881.81
2022-08-12T04:16:35.322Z,94876.63
2022-08-12T04:19:02.353Z,94889.59
2022-08-12T04:21:28.814Z,94884.06
2022-08-12T04:23:56.327Z,94874.50
2022-08-12T04:26:22.972Z,94874.09
2022-08-12T04:28:49.517Z,94879.59
2022-08-12T04:31:16.013Z,94883.09
2022-08-12T04:33:43.881Z,94886.66
2022-08-12T04:36:10.458Z,94896.81
2022-08-12T04:38:37.350Z,94890.44
2022-08-12T04:41:06.015Z,94897.38
2022-08-12T04:43:59.989Z,94890.25
2022-08-12T04:46:23.336Z,94896.38
2022-08-12T04:48:52.684Z,94908.06
2022-08-12T04:51:23.341Z,94904.50
2022-08-12T04:53:51.268Z,94906.97
2022-08-12T04:56:18.097Z,94894.34
2022-08-12T04:58:47.424Z,94897.91
2022-08-12T05:01:18.405Z,94902.28
2022-08-12T05:03:45.842Z,94896.94
2022-08-12T05:06:20.737Z,94887.06
2022-08-12T05:08:55.094Z,94865.69
2022-08-12T05:11:24.535Z,94891.63
2022-08-12T05:13:56.375Z,94900.69
2022-08-12T05:16:32.394Z,94899.38
2022-08-12T05:19:01.140Z,94906.28
2022-08-12T05:21:29.382Z,94917.28
2022-08-12T05:23:55.996Z,94907.19
2022-08-12T05:26:22.902Z,94915.53
2022-08-12T05:28:50.927Z,94918.19
2022-08-12T05:31:40.363Z,94915.13
2022-08-12T05:34:05.872Z,94922.38
2022-08-12T05:36:32.584Z,94908.53
2022-08-12T05:38:59.525Z,94912.28
2022-08-12T05:41:30.357Z,94929.72
2022-08-12T05:44:01.987Z,94921.38
2022-08-12T05:46:30.056Z,94916.38
2022-08-12T05:48:57.131Z,94918.41
2022-08-12T05:51:25.467Z,94906.28
2022-08-12T05:54:06.323Z,94905.03
2022-08-12T05:56:36.177Z,94904.06
2022-08-12T05:59:07.449Z,94929.72
2022-08-12T06:02:10.727Z,94924.50
2022-08-12T06:04:21.673Z,94918.81
2022-08-12T06:06:53.491Z,94920.13
2022-08-12T06:09:22.447Z,94900.16
2022-08-12T06:12:04.899Z,94919.41
2022-08-12T06:14:36.423Z,94923.97
2022-08-12T06:17:05.024Z,94921.94
2022-08-12T06:20:27.469Z,94927.63
2022-08-12T06:22:18.251Z,94925.81
2022-08-12T06:24:44.974Z,94929.75
2022-08-12T06:27:12.166Z,94927.19
2022-08-12T06:30:07.113Z,94931.78
2022-08-12T06:32:27.538Z,94912.72
2022-08-12T06:35:25.991Z,94915.66
2022-08-12T06:37:51.559Z,94908.84
2022-08-12T06:40:43.501Z,94918.47
2022-08-12T06:43:10.050Z,94907.69
2022-08-12T06:45:45.230Z,94901.69
2022-08-12T06:48:13.115Z,94909.63
2022-08-12T06:50:40.315Z,94896.41
2022-08-12T06:53:09.306Z,94908.84
2022-08-12T06:55:36.277Z,94892.88
2022-08-12T06:58:07.495Z,94908.25
2022-08-12T07:00:36.935Z,94907.56
2022-08-12T07:03:16.147Z,94904.00
2022-08-12T07:05:48.951Z,94898.75
2022-08-12T07:08:18.187Z,94914.59
2022-08-12T07:10:53.448Z,94909.69
2022-08-12T07:13:20.471Z,94915.22
2022-08-12T07:15:47.009Z,94913.75
2022-08-12T07:18:16.969Z,94913.38
2022-08-12T07:20:53.431Z,94912.06
2022-08-12T07:23:20.680Z,94913.66
2022-08-12T07:25:47.253Z,94910.72
2022-08-12T07:28:17.443Z,94914.94
2022-08-12T07:30:46.576Z,94907.72
2022-08-12T07:33:13.534Z,94904.53
2022-08-12T07:35:48.274Z,94910.59
2022-08-12T07:38:30.699Z,94916.09
2022-08-12T07:41:08.267Z,94891.59
2022-08-12T07:43:50.185Z,94911.31
2022-08-12T07:46:20.488Z,94918.44
2022-08-12T07:48:49.701Z,94910.84
2022-08-12T07:51:25.274Z,94912.09
2022-08-12T07:54:00.819Z,94912.09
2022-08-12T07:56:31.361Z,94915.66
2022-08-12T07:58:59.293Z,94904.66
2022-08-12T08:01:26.759Z,94907.19
2022-08-12T08:04:18.123Z,94911.81
2022-08-12T08:06:45.675Z,94919.97
2022-08-12T08:09:15.160Z,94913.63
2022-08-12T08:12:00.714Z,94912.25
2022-08-12T08:14:29.491Z,94916.16
2022-08-12T08:17:01.263Z,94916.50
2022-08-12T08:19:29.267Z,94911.38
2022-08-12T08:21:57.463Z,94907.13
2022-08-12T08:24:27.015Z,94917.59
2022-08-12T08:26:58.573Z,94916.38
2022-08-12T08:29:25.970Z,94917.78
2022-08-12T08:32:00.146Z,94928.22
2022-08-12T08:34:33.830Z,94915.84
2022-08-12T08:37:17.237Z,94924.69
2022-08-12T08:39:44.095Z,94920.09
2022-08-12T08:42:29.320Z,94900.25
2022-08-12T08:44:58.486Z,94908.72
2022-08-12T08:47:25.563Z,94906.22
2022-08-12T08:49:52.626Z,94913.66
2022-08-12T08:52:39.749Z,94922.19
2022-08-12T08:55:10.506Z,94900.50
2022-08-12T08:57:43.584Z,94913.81
2022-08-12T09:00:20.956Z,94907.56
2022-08-12T09:02:59.412Z,94911.59
2022-08-12T09:05:27.795Z,94907.34
2022-08-12T09:08:12.055Z,94896.72
2022-08-12T09:10:44.987Z,94905.19
2022-08-12T09:14:10.891Z,94918.94
2022-08-12T09:19:06.547Z,94919.13
2022-08-12T09:21:54.552Z,94913.78
2022-08-12T09:24:22.133Z,94911.28
2022-08-12T09:26:49.591Z,94920.41
2022-08-12T09:30:10.379Z,94909.00
2022-08-12T09:32:11.532Z,94901.41
2022-08-12T09:34:56.733Z,94901.19
2022-08-12T09:37:28.302Z,94900.81
2022-08-12T09:40:57.888Z,94914.91
2022-08-12T09:43:24.690Z,94885.09
2022-08-12T09:46:11.814Z,94901.53
2022-08-12T09:48:40.264Z,94887.41
2022-08-12T09:51:21.560Z,94901.41
2022-08-12T09:54:08.670Z,94896.78
2022-08-12T09:56:59.994Z,94914.50
2022-08-12T10:00:17.091Z,94898.16
2022-08-12T10:02:43.946Z,94901.94
2022-08-12T10:05:00.550Z,94886.53
2022-08-12T10:07:39.995Z,94896.91
2022-08-12T10:10:23.927Z,94890.31
2022-08-12T10:13:11.975Z,94883.56
2022-08-12T10:16:00.880Z,94877.56
2022-08-12T10:18:32.670Z,94896.34
2022-08-12T10:21:05.900Z,94870.66
2022-08-12T10:23:39.250Z,94881.81
2022-08-12T10:26:37.922Z,94888.34
2022-08-12T10:30:37.716Z,94890.06
2022-08-12T10:32:44.783Z,94886.19
2022-08-12T10:35:08.551Z,94876.66
2022-08-12T10:38:39.320Z,94883.91
2022-08-12T10:40:28.681Z,94872.50
2022-08-12T10:43:26.846Z,94868.31
2022-08-12T10:45:58.273Z,94878.81
2022-08-12T10:48:33.190Z,94882.78
2022-08-12T10:52:04.112Z,94879.25
2022-08-12T10:53:54.294Z,94871.28
2022-08-12T10:56:27.775Z,94862.28
2022-08-12T10:59:01.711Z,94869.06
2022-08-12T11:04:22.484Z,94854.88
2022-08-12T11:04:23.369Z,94855.03
2022-08-12T11:07:09.934Z,94870.56
2022-08-12T11:10:00.816Z,94853.06
2022-08-12T11:12:55.189Z,94857.19
2022-08-12T11:15:32.790Z,94849.22
2022-08-12T11:18:11.810Z,94871.84
2022-08-12T11:20:44.906Z,94865.50
2022-08-12T11:23:25.049Z,94865.50
2022-08-12T11:26:01.410Z,94858.72
2022-08-12T11:28:34.709Z,94857.06
2022-08-12T11:31:06.051Z,94871.59
2022-08-12T11:34:04.545Z,94851.06
2022-08-12T11:36:22.065Z,94869.97
2022-08-12T11:38:50.496Z,94868.00
2022-08-12T11:41:31.380Z,94854.59
2022-08-12T11:43:59.302Z,94855.72
2022-08-12T11:46:26.826Z,94871.66
2022-08-12T11:48:53.450Z,94849.25
2022-08-12T11:51:21.181Z,94864.63
2022-08-12T11:53:57.475Z,94846.97
2022-08-12T11:56:38.106Z,94858.38
2022-08-12T12:02:01.924Z,94837.50
2022-08-12T12:04:32.123Z,94814.53
2022-08-12T12:07:07.243Z,94847.78
2022-08-12T12:09:51.985Z,94843.94
2022-08-12T12:12:21.582Z,94833.53
2022-08-12T12:14:54.128Z,94831.09
2022-08-12T12:17:21.634Z,94825.69
2022-08-12T12:19:48.724Z,94846.91
2022-08-12T12:22:15.840Z,94820.88
2022-08-12T12:24:51.237Z,94825.97
2022-08-12T12:27:20.288Z,94830.72
2022-08-12T12:30:19.553Z,94824.09
2022-08-12T12:32:53.785Z,94814.94
2022-08-12T12:36:20.012Z,94820.44
2022-08-12T12:38:12.359Z,94804.13
2022-08-12T12:40:41.726Z,94812.66
2022-08-12T12:43:11.208Z,94813.16
2022-08-12T12:45:39.556Z,94802.22
2022-08-12T12:48:17.584Z,94801.88
2022-08-12T12:50:51.178Z,94810.13
2022-08-12T12:54:06.918Z,94801.56
2022-08-12T12:56:13.561Z,94806.34
2022-08-12T12:58:43.583Z,94784.25
2022-08-12T13:01:26.663Z,94808.13
2022-08-12T13:04:02.723Z,94806.78
2022-08-12T13:06:31.619Z,94788.78
2022-08-12T13:09:03.114Z,94792.97
2022-08-12T13:11:41.471Z,94791.75
2022-08-12T13:14:28.048Z,94799.34
2022-08-12T13:16:56.607Z,94802.47
2022-08-12T13:19:36.476Z,94796.66
2022-08-12T13:22:20.102Z,94801.38
2022-08-12T13:24:54.686Z,94781.03
2022-08-12T13:27:35.237Z,94784.44
2022-08-12T13:30:07.018Z,94780.91
2022-08-12T13:32:37.568Z,94781.38
2022-08-12T13:35:19.804Z,94793.66
2022-08-12T13:37:55.804Z,94786.78
2022-08-12T13:40:28.294Z,94782.00
2022-08-12T13:42:59.057Z,94770.53
2022-08-12T13:45:29.044Z,94778.34
2022-08-12T13:47:58.570Z,94761.03
2022-08-12T13:50:39.222Z,94771.69
2022-08-12T13:53:24.461Z,94781.16
2022-08-12T13:55:59.153Z,94776.59
2022-08-12T13:58:30.109Z,94766.88
2022-08-12T14:00:58.405Z,94761.63
2022-08-12T14:03:28.296Z,94763.47
2022-08-12T14:06:15.391Z,94767.50
2022-08-12T14:08:43.040Z,94781.00
2022-08-12T14:11:09.797Z,94779.50
2022-08-12T14:14:03.099Z,94776.16
2022-08-12T14:16:37.627Z,94767.50
2022-08-12T14:19:22.165Z,94756.72
2022-08-12T14:22:01.604Z,94762.84
2022-08-12T14:24:40.373Z,94777.06
2022-08-12T14:27:09.187Z,94769.56
2022-08-12T14:30:04.355Z,94761.03
2022-08-12T14:32:26.109Z,94768.81
2022-08-12T14:34:53.099Z,94767.63
2022-08-12T14:37:56.604Z,94751.81
2022-08-12T14:40:18.354Z,94750.72
2022-08-12T14:42:47.004Z,94748.28
2022-08-12T14:45:13.830Z,94758.47
2022-08-12T14:47:58.377Z,94764.56
2022-08-12T14:50:41.131Z,94755.06
2022-08-12T14:55:24.568Z,94757.44
2022-08-12T14:59:23.689Z,94758.50
2022-08-12T15:01:52.224Z,94758.50
2022-08-12T15:04:26.207Z,94765.09
2022-08-12T15:06:53.249Z,94748.97
2022-08-12T15:09:29.200Z,94751.34
2022-08-12T15:12:03.245Z,94750.34
2022-08-12T15:14:31.410Z,94748.97
2022-08-12T15:17:00.076Z,94741.38
2022-08-12T15:20:28.413Z,94748.44
2022-08-12T15:22:37.331Z,94748.34
2022-08-12T15:25:03.871Z,94747.56
2022-08-12T15:28:04.219Z,94751.03
2022-08-12T15:30:22.913Z,94757.75
2022-08-12T15:32:50.777Z,94759.66
2022-08-12T15:35:17.673Z,94749.16
2022-08-12T15:37:58.955Z,94766.75
2022-08-12T15:40:31.861Z,94763.66
2022-08-12T15:43:08.088Z,94753.38
2022-08-12T15:45:38.845Z,94761.59
2022-08-12T15:48:16.941Z,94749.72
2022-08-12T15:50:47.343Z,94762.56
2022-08-12T15:53:39.972Z,94756.88
2022-08-12T15:56:12.634Z,94762.34
2022-08-12T15:58:43.639Z,94749.91
2022-08-12T16:01:15.062Z,94746.06
2022-08-12T16:03:46.317Z,94756.97
2022-08-12T16:06:58.947Z,94741.63
2022-08-12T16:09:21.688Z,94739.25
2022-08-12T16:11:48.478Z,94747.38
2022-08-12T16:14:16.208Z,94746.19
2022-08-12T16:16:43.021Z,94741.81
2022-08-12T16:20:01.592Z,94741.22
2022-08-12T16:21:58.172Z,94737.09
2022-08-12T16:24:25.637Z,94734.59
2022-08-12T16:26:54.017Z,94717.19
2022-08-12T16:29:52.066Z,94726.09
2022-08-12T16:32:21.133Z,94725.81
2022-08-12T16:34:55.451Z,94719.28
2022-08-12T16:37:30.508Z,94732.47
2022-08-12T16:40:04.540Z,94729.47
2022-08-12T16:42:32.148Z,94720.91
2022-08-12T16:45:02.146Z,94726.41
2022-08-12T16:47:43.933Z,94724.19
2022-08-12T16:50:19.437Z,94739.47
2022-08-12T16:52:49.983Z,94736.97
2022-08-12T16:55:16.915Z,94729.56
2022-08-12T16:57:49.396Z,94722.16
2022-08-12T17:00:17.767Z,94742.88
2022-08-12T17:02:50.701Z,94731.75
2022-08-12T17:05:25.206Z,94737.66
2022-08-12T17:07:58.149Z,94746.22
2022-08-12T17:10:35.501Z,94723.94
2022-08-12T17:13:09.746Z,94728.22
2022-08-12T17:15:57.789Z,94714.25
2022-08-12T17:18:43.743Z,94738.91
2022-08-12T17:21:17.287Z,94730.53
2022-08-12T17:23:53.374Z,94729.50
2022-08-12T17:26:22.386Z,94754.63
2022-08-12T17:28:56.572Z,94749.66
2022-08-12T17:32:01.372Z,94754.97
2022-08-12T17:34:30.286Z,94745.81
2022-08-12T17:37:02.823Z,94749.34
2022-08-12T17:40:06.842Z,94751.59
2022-08-12T17:42:34.433Z,94745.03
2022-08-12T17:45:17.909Z,94756.38
2022-08-12T17:48:01.235Z,94759.41
2022-08-12T17:50:35.876Z,94763.41
2022-08-12T17:53:03.687Z,94777.78
2022-08-12T17:55:43.691Z,94773.22
2022-08-12T17:58:35.682Z,94763.75
2022-08-12T18:01:04.537Z,94772.63
2022-08-12T18:04:05.390Z,94777.47
2022-08-12T18:06:27.761Z,94779.16
2022-08-12T18:08:59.076Z,94773.84
2022-08-12T18:12:05.418Z,94781.91
2022-08-12T18:14:32.628Z,94764.81
2022-08-12T18:17:03.349Z,94771.53
2022-08-12T18:20:03.726Z,94786.47
2022-08-12T18:22:22.071Z,94766.84
2022-08-12T18:25:04.157Z,94775.69
2022-08-12T18:27:44.832Z,94768.81
2022-08-12T18:30:20.923Z,94779.09
2022-08-12T18:33:03.882Z,94789.06
2022-08-12T18:35:46.567Z,94794.72
2022-08-12T18:38:20.119Z,94783.44
2022-08-12T18:41:07.505Z,94805.47
2022-08-12T18:43:57.375Z,94799.00
2022-08-12T18:46:29.888Z,94792.56
2022-08-12T18:48:57.491Z,94800.38
2022-08-12T18:51:55.213Z,94807.00
2022-08-12T18:54:30.903Z,94805.84
2022-08-12T18:57:00.905Z,94809.81
2022-08-12T19:00:01.237Z,94812.72
2022-08-12T19:03:39.579Z,94785.47
2022-08-12T19:06:38.394Z,94783.81
2022-08-12T19:09:10.242Z,94784.81
2022-08-12T19:12:03.076Z,94785.84
2022-08-12T19:14:48.801Z,94791.84
2022-08-12T19:17:15.473Z,94795.19
2022-08-12T19:22:15.334Z,94793.81
2022-08-12T19:23:35.346Z,94816.53
2022-08-12T19:26:03.459Z,94813.38
2022-08-12T19:28:34.621Z,94818.59
2022-08-12T19:31:56.328Z,94819.16
2022-08-12T19:35:06.650Z,94814.53
2022-08-12T19:37:16.518Z,94813.44
2022-08-12T19:40:09.520Z,94810.72
2022-08-12T19:42:32.663Z,94806.00
2022-08-12T19:45:04.933Z,94819.06
2022-08-12T19:47:38.621Z,94814.00
2022-08-12T19:50:06.712Z,94806.13
2022-08-12T19:52:39.230Z,94810.19
2022-08-12T19:55:11.648Z,94809.78
2022-08-12T19:58:01.414Z,94824.00
2022-08-12T20:00:29.460Z,94806.41
2022-08-12T20:03:00.598Z,94815.16
2022-08-12T20:06:04.595Z,94825.03
2022-08-12T20:08:31.355Z,94813.59
2022-08-12T20:12:14.724Z,94806.84
2022-08-12T20:14:00.634Z,94813.59
2022-08-12T20:16:50.963Z,94808.66
2022-08-12T20:19:15.008Z,94810.31
2022-08-12T20:21:43.603Z,94812.47
2022-08-12T20:24:14.218Z,94817.50
2022-08-12T20:26:42.982Z,94802.44
2022-08-12T20:29:11.388Z,94802.69
2022-08-12T20:31:39.674Z,94790.44
2022-08-12T20:34:06.839Z,94789.28
2022-08-12T20:36:40.825Z,94799.84
2022-08-12T20:39:37.222Z,94790.81
2022-08-12T20:42:01.874Z,94820.28
2022-08-12T20:44:30.561Z,94818.56
2022-08-12T20:47:06.427Z,94816.69
2022-08-12T20:49:45.151Z,94813.84
2022-08-12T20:52:15.200Z,94818.66
2022-08-12T20:54:52.257Z,94825.75
2022-08-12T20:57:22.352Z,94822.78
2022-08-12T20:59:51.848Z,94827.84
2022-08-12T21:02:24.596Z,94829.25
2022-08-12T21:05:19.958Z,94822.25
2022-08-12T21:07:51.930Z,94817.84
2022-08-12T21:10:20.861Z,94825.88
2022-08-12T21:12:48.396Z,94831.91
2022-08-12T21:15:17.385Z,94819.47
2022-08-12T21:18:11.569Z,94826.81
2022-08-12T21:20:50.844Z,94829.31
2022-08-12T21:23:19.261Z,94823.25
2022-08-12T21:25:49.121Z,94830.56
2022-08-12T21:28:21.178Z,94806.13
2022-08-12T21:31:10.462Z,94829.94
2022-08-12T21:33:58.950Z,94813.09
2022-08-12T21:36:34.985Z,94810.69
2022-08-12T21:39:19.105Z,94821.53
2022-08-12T21:41:52.411Z,94815.03
2022-08-12T21:45:44.644Z,94817.69
2022-08-12T21:47:19.890Z,94814.56
2022-08-12T21:49:54.905Z,94801.91
2022-08-12T21:52:40.508Z,94813.59
2022-08-12T21:55:17.920Z,94812.19
2022-08-12T21:57:53.502Z,94801.59
2022-08-12T22:00:33.135Z,94814.94
2022-08-12T22:03:30.358Z,94801.91
2022-08-12T22:06:26.099Z,94807.09
2022-08-12T22:09:03.384Z,94814.59
2022-08-12T22:11:40.957Z,94806.91
2022-08-12T22:14:10.301Z,94803.84
2022-08-12T22:16:53.517Z,94809.84
2022-08-12T22:19:21.499Z,94809.84
2022-08-12T22:21:55.788Z,94801.59
2022-08-12T22:24:30.394Z,94796.00
2022-08-12T22:27:08.243Z,94807.00
2022-08-12T22:30:17.018Z,94808.16
2022-08-12T22:32:50.012Z,94801.41
2022-08-12T22:35:56.608Z,94806.06
2022-08-12T22:38:44.064Z,94803.66
2022-08-12T22:41:33.275Z,94797.22
2022-08-12T22:44:20.349Z,94805.13
2022-08-12T22:46:54.160Z,94808.00
2022-08-12T22:49:25.992Z,94805.03
2022-08-12T22:52:11.317Z,94792.88
2022-08-12T22:55:02.237Z,94792.88
2022-08-12T22:57:49.440Z,94786.00
2022-08-12T23:00:24.448Z,94780.50
2022-08-12T23:02:56.601Z,94770.63
2022-08-12T23:05:57.190Z,94777.03
2022-08-12T23:08:13.797Z,94763.94
2022-08-12T23:10:45.043Z,94769.97
2022-08-12T23:13:43.040Z,94766.06
2022-08-12T23:16:27.928Z,94772.09
2022-08-12T23:19:22.866Z,94772.34
2022-08-12T23:22:06.141Z,94770.06
2022-08-12T23:24:56.039Z,94766.38
2022-08-12T23:28:00.445Z,94771.69
2022-08-12T23:30:31.981Z,94766.72
2022-08-12T23:33:19.897Z,94774.91
2022-08-12T23:36:02.961Z,94761.59
2022-08-12T23:38:32.494Z,94770.44
2022-08-12T23:41:03.329Z,94771.19
2022-08-12T23:43:38.967Z,94761.59
2022-08-12T23:46:09.252Z,94757.34
2022-08-12T23:48:37.768Z,94746.72
2022-08-12T23:51:23.296Z,94763.22
2022-08-12T23:54:01.240Z,94768.00
2022-08-12T23:56:33.672Z,94769.59
2022-08-12T23:59:05.549Z,94773.31
